createdAt,value
2019-05-09T13:09:12.048Z,99770.59
2019-05-09T13:11:42.373Z,99780.63
2019-05-09T13:14:12.712Z,99774.36
2019-05-09T13:16:49.550Z,99774.22
2019-05-09T13:19:18.624Z,99773.50
2019-05-09T13:21:49.150Z,99788.50
2019-05-09T13:24:19.938Z,99777.36
2019-05-09T13:26:52.021Z,99783.91
2019-05-09T13:29:22.347Z,99782.70
2019-05-09T13:31:52.671Z,99777.70
2019-05-09T13:34:22.992Z,99777.28
2019-05-09T13:36:53.316Z,99787.50
2019-05-09T13:39:23.680Z,99784.05
2019-05-09T13:41:54.034Z,99781.71
2019-05-09T13:44:24.367Z,99776.16
2019-05-09T13:46:54.752Z,99781.77
2019-05-09T13:49:25.065Z,99774.57
2019-05-09T13:52:03.959Z,99775.14
2019-05-09T13:54:28.593Z,99774.66
2019-05-09T13:57:01.416Z,99774.52
2019-05-09T13:59:31.110Z,99767.30
2019-05-09T14:02:01.436Z,99766.94
2019-05-09T14:04:31.957Z,99767.95
2019-05-09T14:07:02.275Z,99771.44
2019-05-09T14:09:32.612Z,99766.94
2019-05-09T14:12:02.940Z,99766.44
2019-05-09T14:14:33.273Z,99765.27
2019-05-09T14:17:03.613Z,99766.35
2019-05-09T14:19:45.114Z,99767.00
2019-05-09T14:22:08.216Z,99771.86
2019-05-09T14:24:38.068Z,99768.35
2019-05-09T14:27:08.400Z,99757.67
2019-05-09T14:29:38.730Z,99767.30
2019-05-09T14:32:09.122Z,99765.38
2019-05-09T14:34:42.747Z,99764.30
2019-05-09T14:37:11.509Z,99765.80
2019-05-09T14:39:54.735Z,99761.59
2019-05-09T14:42:13.970Z,99754.09
2019-05-09T14:44:44.298Z,99757.59
2019-05-09T14:47:14.695Z,99756.51
2019-05-09T14:49:45.082Z,99750.81
2019-05-09T14:52:15.425Z,99752.67
2019-05-09T14:54:48.124Z,99750.61
2019-05-09T14:57:18.086Z,99758.38
2019-05-09T14:59:48.411Z,99752.81
2019-05-09T15:02:18.802Z,99750.81
2019-05-09T15:04:49.144Z,99754.39
2019-05-09T15:07:19.651Z,99751.31
2019-05-09T15:09:50.198Z,99742.34
2019-05-09T15:12:20.544Z,99747.90
2019-05-09T15:14:50.891Z,99751.03
2019-05-09T15:17:21.014Z,99750.46
2019-05-09T15:19:59.539Z,99747.02
2019-05-09T15:22:23.083Z,99742.81
2019-05-09T15:24:53.166Z,99747.98
2019-05-09T15:27:23.338Z,99755.80
2019-05-09T15:29:53.488Z,99757.45
2019-05-09T15:32:23.660Z,99754.73
2019-05-09T15:34:53.796Z,99751.69
2019-05-09T15:37:23.971Z,99754.59
2019-05-09T15:39:54.093Z,99752.30
2019-05-09T15:42:24.288Z,99752.39
2019-05-09T15:44:54.416Z,99756.87
2019-05-09T15:47:28.951Z,99755.53
2019-05-09T15:50:14.606Z,99758.61
2019-05-09T15:52:31.068Z,99759.59
2019-05-09T15:55:01.191Z,99755.03
2019-05-09T15:57:34.395Z,99763.44
2019-05-09T16:00:08.508Z,99761.23
2019-05-09T16:02:39.281Z,99758.81
2019-05-09T16:05:10.724Z,99763.39
2019-05-09T16:07:40.957Z,99763.31
2019-05-09T16:10:11.522Z,99757.75
2019-05-09T16:12:41.629Z,99758.81
2019-05-09T16:15:12.305Z,99764.73
2019-05-09T16:17:42.371Z,99771.05
2019-05-09T16:20:12.867Z,99759.56
2019-05-09T16:22:43.099Z,99760.50
2019-05-09T16:25:13.330Z,99761.28
2019-05-09T16:27:43.433Z,99760.44
2019-05-09T16:30:14.467Z,99754.09
2019-05-09T16:32:44.657Z,99759.38
2019-05-09T16:35:15.124Z,99750.58
2019-05-09T16:37:58.263Z,99749.59
2019-05-09T16:40:17.237Z,99757.45
2019-05-09T16:42:47.571Z,99750.88
2019-05-09T16:45:18.401Z,99755.17
2019-05-09T16:47:48.801Z,99746.47
2019-05-09T16:50:20.703Z,99745.48
2019-05-09T16:52:50.853Z,99746.18
2019-05-09T16:55:22.633Z,99745.02
2019-05-09T16:57:52.723Z,99746.73
2019-05-09T17:00:33.119Z,99749.28
2019-05-09T17:03:03.225Z,99749.82
2019-05-09T17:05:33.325Z,99750.73
2019-05-09T17:08:03.494Z,99750.55
2019-05-09T17:10:33.585Z,99751.22
2019-05-09T17:13:03.821Z,99748.87
2019-05-09T17:15:34.005Z,99754.23
2019-05-09T17:18:04.389Z,99755.30
2019-05-09T17:20:38.215Z,99763.16
2019-05-09T17:23:14.485Z,99761.92
2019-05-09T17:25:41.949Z,99758.73
2019-05-09T17:28:12.237Z,99758.98
2019-05-09T17:30:42.495Z,99764.26
2019-05-09T17:33:14.386Z,99767.69
2019-05-09T17:35:44.531Z,99767.41
2019-05-09T17:38:14.762Z,99771.38
2019-05-09T17:40:44.848Z,99774.68
2019-05-09T17:43:15.249Z,99768.91
2019-05-09T17:45:47.630Z,99764.46
2019-05-09T17:48:18.261Z,99771.53
2019-05-09T17:50:48.714Z,99773.13
2019-05-09T17:53:18.807Z,99775.73
2019-05-09T17:55:48.896Z,99766.44
2019-05-09T17:58:29.692Z,99775.57
2019-05-09T18:00:50.828Z,99772.55
2019-05-09T18:03:21.093Z,99778.06
2019-05-09T18:05:51.180Z,99774.81
2019-05-09T18:08:21.272Z,99779.76
2019-05-09T18:10:51.361Z,99781.22
2019-05-09T18:13:24.005Z,99780.20
2019-05-09T18:15:53.443Z,99779.07
2019-05-09T18:18:23.812Z,99779.07
2019-05-09T18:20:53.902Z,99774.83
2019-05-09T18:23:24.063Z,99774.20
2019-05-09T18:25:54.239Z,99774.05
2019-05-09T18:28:24.702Z,99776.29
2019-05-09T18:30:54.864Z,99775.03
2019-05-09T18:33:32.112Z,99773.44
2019-05-09T18:36:02.236Z,99766.73
2019-05-09T18:38:34.626Z,99769.42
2019-05-09T18:41:07.230Z,99765.92
2019-05-09T18:43:36.848Z,99771.31
2019-05-09T18:46:08.376Z,99771.33
2019-05-09T18:48:38.690Z,99768.39
2019-05-09T18:51:08.778Z,99766.55
2019-05-09T18:53:38.937Z,99768.39
2019-05-09T18:56:09.035Z,99765.49
2019-05-09T18:58:39.125Z,99763.42
2019-05-09T19:01:09.360Z,99767.27
2019-05-09T19:03:39.467Z,99784.56
2019-05-09T19:06:09.550Z,99781.03
2019-05-09T19:08:39.648Z,99776.80
2019-05-09T19:11:09.735Z,99780.05
2019-05-09T19:13:39.973Z,99773.31
2019-05-09T19:16:17.358Z,99778.06
2019-05-09T19:19:06.677Z,99771.03
2019-05-09T19:21:42.391Z,99767.07
2019-05-09T19:24:12.506Z,99762.17
2019-05-09T19:26:42.614Z,99763.91
2019-05-09T19:29:12.718Z,99770.59
2019-05-09T19:31:42.789Z,99763.67
2019-05-09T19:34:12.874Z,99767.69
2019-05-09T19:36:42.987Z,99776.40
2019-05-09T19:39:13.630Z,99775.64
2019-05-09T19:41:43.798Z,99781.75
2019-05-09T19:44:15.694Z,99779.36
2019-05-09T19:46:45.813Z,99785.31
2019-05-09T19:49:16.009Z,99781.14
2019-05-09T19:51:46.133Z,99788.67
2019-05-09T19:54:17.506Z,99781.70
2019-05-09T19:56:47.677Z,99782.11
2019-05-09T19:59:17.811Z,99779.27
2019-05-09T20:01:47.873Z,99782.19
2019-05-09T20:04:17.970Z,99786.33
2019-05-09T20:06:48.059Z,99782.35
2019-05-09T20:09:19.889Z,99792.32
2019-05-09T20:12:06.725Z,99787.94
2019-05-09T20:14:38.473Z,99789.55
2019-05-09T20:17:08.582Z,99787.94
2019-05-09T20:19:38.674Z,99788.50
2019-05-09T20:22:08.785Z,99791.52
2019-05-09T20:24:38.884Z,99782.16
2019-05-09T20:27:09.049Z,99787.83
2019-05-09T20:29:39.174Z,99782.72
2019-05-09T20:32:09.321Z,99787.30
2019-05-09T20:34:39.399Z,99787.28
2019-05-09T20:37:09.742Z,99781.85
2019-05-09T20:39:40.088Z,99783.83
2019-05-09T20:42:10.346Z,99783.51
2019-05-09T20:44:40.890Z,99789.68
2019-05-09T20:47:11.169Z,99790.16
2019-05-09T20:49:41.463Z,99789.06
2019-05-09T20:52:11.791Z,99797.78
2019-05-09T20:54:42.136Z,99800.23
2019-05-09T20:57:12.443Z,99793.96
2019-05-09T20:59:42.726Z,99798.26
2019-05-09T21:02:13.049Z,99802.13
2019-05-09T21:04:43.423Z,99802.32
2019-05-09T21:07:13.801Z,99799.64
2019-05-09T21:09:44.068Z,99807.02
2019-05-09T21:12:15.884Z,99803.13
2019-05-09T21:14:49.128Z,99804.43
2019-05-09T21:17:19.439Z,99806.04
2019-05-09T21:19:49.692Z,99805.16
2019-05-09T21:22:19.972Z,99801.52
2019-05-09T21:24:50.245Z,99810.66
2019-05-09T21:27:20.522Z,99806.41
2019-05-09T21:29:50.804Z,99810.91
2019-05-09T21:32:21.089Z,99810.87
2019-05-09T21:34:51.168Z,99812.56
2019-05-09T21:37:21.256Z,99814.43
2019-05-09T21:39:51.339Z,99821.67
2019-05-09T21:42:21.438Z,99819.80
2019-05-09T21:44:51.671Z,99815.47
2019-05-09T21:47:21.761Z,99816.38
2019-05-09T21:49:51.846Z,99827.17
2019-05-09T21:52:21.941Z,99829.77
2019-05-09T21:54:52.026Z,99824.70
2019-05-09T21:57:22.129Z,99828.45
2019-05-09T21:59:52.210Z,99826.19
2019-05-09T22:02:22.629Z,99825.53
2019-05-09T22:04:53.450Z,99825.41
2019-05-09T22:07:23.612Z,99824.50
2019-05-09T22:09:53.744Z,99824.70
2019-05-09T22:12:23.843Z,99828.84
2019-05-09T22:14:53.931Z,99830.12
2019-05-09T22:17:25.661Z,99827.84
2019-05-09T22:19:55.755Z,99827.94
2019-05-09T22:22:25.848Z,99827.73
2019-05-09T22:24:55.930Z,99826.25
2019-05-09T22:27:26.023Z,99824.53
2019-05-09T22:29:56.107Z,99823.13
2019-05-09T22:32:26.203Z,99823.32
2019-05-09T22:34:56.280Z,99823.86
2019-05-09T22:37:26.374Z,99822.30
2019-05-09T22:39:56.457Z,99817.37
2019-05-09T22:42:26.599Z,99819.86
2019-05-09T22:44:56.683Z,99815.33
2019-05-09T22:47:26.831Z,99824.13
2019-05-09T22:49:56.931Z,99815.96
2019-05-09T22:52:27.019Z,99825.53
2019-05-09T22:54:57.095Z,99817.82
2019-05-09T22:57:27.182Z,99822.92
2019-05-09T22:59:57.264Z,99820.33
2019-05-09T23:02:27.345Z,99821.28
2019-05-09T23:04:57.497Z,99816.44
2019-05-09T23:07:27.905Z,99818.59
2019-05-09T23:09:58.165Z,99815.30
2019-05-09T23:12:28.258Z,99809.84
2019-05-09T23:14:58.339Z,99810.66
2019-05-09T23:17:28.429Z,99810.25
2019-05-09T23:19:58.575Z,99816.05
2019-05-09T23:22:30.306Z,99812.09
2019-05-09T23:25:00.397Z,99814.23
2019-05-09T23:27:30.482Z,99810.55
2019-05-09T23:30:00.564Z,99817.09
2019-05-09T23:32:32.297Z,99814.64
2019-05-09T23:35:02.378Z,99817.23
2019-05-09T23:37:32.457Z,99811.83
2019-05-09T23:40:02.577Z,99808.83
2019-05-09T23:42:32.655Z,99814.40
2019-05-09T23:45:02.788Z,99818.77
2019-05-09T23:47:32.877Z,99815.70
2019-05-09T23:50:03.036Z,99815.39
2019-05-09T23:52:33.116Z,99815.67
2019-05-09T23:55:21.028Z,99810.81
2019-05-09T23:58:08.834Z,99809.45
